createdAt,value
2023-01-26T00:02:31.198Z,0.00
2023-01-26T00:05:04.896Z,0.00
2023-01-26T00:07:39.508Z,0.00
2023-01-26T00:10:13.424Z,0.00
2023-01-26T00:12:48.333Z,0.00
2023-01-26T00:15:22.069Z,0.00
2023-01-26T00:17:55.641Z,0.00
2023-01-26T00:20:29.563Z,0.00
2023-01-26T00:23:03.355Z,0.00
2023-01-26T00:25:39.962Z,0.00
2023-01-26T00:28:14.879Z,0.10
2023-01-26T00:30:48.449Z,0.10
2023-01-26T00:33:23.821Z,0.00
2023-01-26T00:35:57.666Z,0.00
2023-01-26T00:38:33.661Z,0.00
2023-01-26T00:41:08.264Z,-0.10
2023-01-26T00:43:43.137Z,0.00
2023-01-26T00:46:16.653Z,0.00
2023-01-26T00:48:50.583Z,0.00
2023-01-26T00:51:24.233Z,0.00
2023-01-26T00:53:57.786Z,0.00
2023-01-26T00:56:31.424Z,0.10
2023-01-26T00:59:07.829Z,0.10
2023-01-26T01:01:41.374Z,0.10
2023-01-26T01:04:15.539Z,0.10
2023-01-26T01:06:49.236Z,0.10
2023-01-26T01:09:24.031Z,0.10
2023-01-26T01:11:57.557Z,0.20
2023-01-26T01:14:32.798Z,0.10
2023-01-26T01:17:06.374Z,0.10
2023-01-26T01:19:40.539Z,0.10
2023-01-26T01:22:14.373Z,0.10
2023-01-26T01:24:48.676Z,0.10
2023-01-26T01:27:22.418Z,0.10
2023-01-26T01:29:57.346Z,0.10
2023-01-26T01:32:30.827Z,0.00
2023-01-26T01:35:05.247Z,0.10
2023-01-26T01:37:38.771Z,0.00
2023-01-26T01:40:14.113Z,0.00
2023-01-26T01:42:50.969Z,0.00
2023-01-26T01:45:41.077Z,-0.10
2023-01-26T01:48:24.827Z,-0.10
2023-01-26T01:51:04.449Z,-0.10
2023-01-26T01:53:41.809Z,-0.10
2023-01-26T01:56:24.733Z,-0.10
2023-01-26T01:59:01.087Z,-0.10
2023-01-26T02:01:36.250Z,-0.10
2023-01-26T02:04:11.457Z,-0.10
2023-01-26T02:06:50.536Z,-0.10
2023-01-26T02:09:47.138Z,-0.10
2023-01-26T02:12:24.802Z,-0.10
2023-01-26T02:14:59.273Z,-0.10
2023-01-26T02:17:34.968Z,-0.20
2023-01-26T02:20:16.995Z,-0.10
2023-01-26T02:22:57.591Z,-0.10
2023-01-26T02:25:38.481Z,-0.10
2023-01-26T02:28:14.048Z,-0.20
2023-01-26T02:30:48.336Z,-0.20
2023-01-26T02:33:24.285Z,-0.20
2023-01-26T02:36:02.926Z,-0.20
2023-01-26T02:38:42.434Z,-0.30
2023-01-26T02:41:38.302Z,-0.20
2023-01-26T02:44:13.686Z,-0.30
2023-01-26T02:46:47.110Z,-0.30
2023-01-26T02:49:39.472Z,-0.30
2023-01-26T02:52:13.122Z,-0.30
2023-01-26T02:55:04.223Z,-0.20
2023-01-26T02:57:38.417Z,-0.30
2023-01-26T03:00:17.115Z,-0.30
2023-01-26T03:02:53.029Z,-0.30
2023-01-26T03:05:26.992Z,-0.30
2023-01-26T03:08:01.703Z,-0.30
2023-01-26T03:10:41.321Z,-0.30
2023-01-26T03:13:14.915Z,-0.30
2023-01-26T03:15:54.631Z,-0.30
2023-01-26T03:18:47.129Z,-0.40
2023-01-26T03:21:38.290Z,-0.40
2023-01-26T03:24:31.199Z,-0.40
2023-01-26T03:27:28.621Z,-0.40
2023-01-26T03:30:08.865Z,-0.40
2023-01-26T03:32:44.113Z,-0.40
2023-01-26T03:35:23.180Z,-0.40
2023-01-26T03:37:57.375Z,-0.40
2023-01-26T03:40:57.696Z,-0.40
2023-01-26T03:43:48.848Z,-0.40
2023-01-26T03:46:40.050Z,-0.40
2023-01-26T03:49:32.742Z,-0.40
2023-01-26T03:52:23.724Z,-0.40
2023-01-26T03:55:14.918Z,-0.40
2023-01-26T03:57:49.833Z,-0.40
2023-01-26T04:00:24.721Z,-0.50
2023-01-26T04:03:15.968Z,-0.40
2023-01-26T04:06:16.493Z,-0.50
2023-01-26T04:08:53.983Z,-0.50
2023-01-26T04:11:27.443Z,-0.40
2023-01-26T04:14:18.477Z,-0.40
2023-01-26T04:17:09.255Z,-0.40
2023-01-26T04:20:01.447Z,-0.40
2023-01-26T04:22:45.171Z,-0.40
2023-01-26T04:25:22.785Z,-0.40
2023-01-26T04:27:56.872Z,-0.40
2023-01-26T04:30:30.471Z,-0.40
2023-01-26T04:33:04.310Z,-0.40
2023-01-26T04:35:37.876Z,-0.40
2023-01-26T04:38:13.058Z,-0.40
2023-01-26T04:40:54.617Z,-0.40
2023-01-26T04:43:29.115Z,-0.40
2023-01-26T04:46:06.224Z,-0.40
2023-01-26T04:48:41.997Z,-0.40
2023-01-26T04:51:17.220Z,-0.40
2023-01-26T04:53:52.239Z,-0.40
2023-01-26T04:56:29.779Z,-0.30
2023-01-26T04:59:07.041Z,-0.30
2023-01-26T05:01:42.785Z,-0.30
2023-01-26T05:04:17.407Z,-0.30
2023-01-26T05:06:53.219Z,-0.30
2023-01-26T05:09:30.427Z,-0.30
2023-01-26T05:12:43.722Z,-0.30
2023-01-26T05:15:26.290Z,-0.30
2023-01-26T05:18:11.808Z,-0.30
2023-01-26T05:21:14.373Z,-0.30
2023-01-26T05:23:53.175Z,-0.20
2023-01-26T05:26:39.118Z,-0.20
2023-01-26T05:29:17.915Z,-0.20
2023-01-26T05:31:52.097Z,-0.20
2023-01-26T05:34:27.006Z,-0.20
2023-01-26T05:37:00.539Z,-0.20
2023-01-26T05:39:37.490Z,-0.20
2023-01-26T05:42:17.031Z,-0.20
2023-01-26T05:45:16.186Z,-0.20
2023-01-26T05:47:51.182Z,-0.20
2023-01-26T05:50:32.228Z,-0.20
2023-01-26T05:53:24.097Z,-0.20
2023-01-26T05:55:57.962Z,-0.30
2023-01-26T05:58:39.505Z,-0.30
2023-01-26T06:01:15.872Z,-0.20
2023-01-26T06:03:56.751Z,-0.20
2023-01-26T06:06:31.431Z,-0.20
2023-01-26T06:09:28.161Z,-0.30
2023-01-26T06:12:16.688Z,-0.20
2023-01-26T06:15:17.680Z,-0.20
2023-01-26T06:17:53.000Z,-0.20
2023-01-26T06:20:26.758Z,-0.20
2023-01-26T06:23:07.676Z,-0.30
2023-01-26T06:25:45.443Z,-0.30
2023-01-26T06:28:20.561Z,-0.30
2023-01-26T06:31:00.986Z,-0.20
2023-01-26T06:33:38.105Z,-0.20
2023-01-26T06:36:15.855Z,-0.30
2023-01-26T06:38:57.135Z,-0.20
2023-01-26T06:41:31.421Z,-0.20
2023-01-26T06:44:08.004Z,-0.20
2023-01-26T06:46:45.874Z,-0.20
2023-01-26T06:49:20.702Z,-0.20
2023-01-26T06:52:00.428Z,-0.20
2023-01-26T06:54:50.515Z,-0.10
2023-01-26T06:57:24.027Z,-0.10
2023-01-26T07:00:17.460Z,-0.10
2023-01-26T07:03:04.302Z,-0.10
2023-01-26T07:05:40.356Z,-0.10
2023-01-26T07:08:14.729Z,0.00
2023-01-26T07:10:48.254Z,0.00
2023-01-26T07:13:21.771Z,0.00
2023-01-26T07:16:02.734Z,0.00
2023-01-26T07:18:41.943Z,0.00
2023-01-26T07:21:18.300Z,0.10
2023-01-26T07:23:53.411Z,0.10
2023-01-26T07:26:27.910Z,0.10
2023-01-26T07:29:02.750Z,0.10
2023-01-26T07:31:37.205Z,0.10
2023-01-26T07:34:13.384Z,0.10
2023-01-26T07:36:47.656Z,0.10
2023-01-26T07:39:21.290Z,0.20
2023-01-26T07:41:55.581Z,0.20
2023-01-26T07:44:48.856Z,0.20
2023-01-26T07:47:24.916Z,0.20
2023-01-26T07:50:00.023Z,0.20
2023-01-26T07:52:33.589Z,0.30
2023-01-26T07:55:11.131Z,0.30
2023-01-26T07:57:44.755Z,0.30
2023-01-26T08:00:19.715Z,0.30
2023-01-26T08:02:53.538Z,0.30
2023-01-26T08:05:28.980Z,0.30
2023-01-26T08:08:03.059Z,0.30
2023-01-26T08:10:36.903Z,0.30
2023-01-26T08:13:10.782Z,0.30
2023-01-26T08:15:44.513Z,0.40
2023-01-26T08:18:18.200Z,0.40
2023-01-26T08:20:54.331Z,0.40
2023-01-26T08:23:28.333Z,0.50
2023-01-26T08:26:03.135Z,0.40
2023-01-26T08:28:38.451Z,0.40
2023-01-26T08:31:14.106Z,0.40
2023-01-26T08:33:50.863Z,0.40
2023-01-26T08:36:26.388Z,0.40
2023-01-26T08:39:00.107Z,0.50
2023-01-26T08:41:34.302Z,0.50
2023-01-26T08:44:08.209Z,0.50
2023-01-26T08:46:41.876Z,0.50
2023-01-26T08:49:15.480Z,0.60
2023-01-26T08:51:50.565Z,0.70
2023-01-26T08:54:24.443Z,0.70
2023-01-26T08:56:58.976Z,0.70
2023-01-26T08:59:32.682Z,0.70
2023-01-26T09:02:06.374Z,0.80
2023-01-26T09:04:39.972Z,0.80
2023-01-26T09:07:15.166Z,0.80
2023-01-26T09:09:48.980Z,0.90
2023-01-26T09:12:22.656Z,0.90
2023-01-26T09:14:56.218Z,0.90
2023-01-26T09:17:29.938Z,1.00
2023-01-26T09:20:03.926Z,1.00
2023-01-26T09:22:39.211Z,1.00
2023-01-26T09:25:13.565Z,1.00
2023-01-26T09:27:47.683Z,1.00
2023-01-26T09:30:21.558Z,1.00
2023-01-26T09:33:00.113Z,1.00
2023-01-26T09:35:34.052Z,1.00
2023-01-26T09:38:09.150Z,1.00
2023-01-26T09:40:51.240Z,1.00
2023-01-26T09:43:34.331Z,1.00
2023-01-26T09:46:21.865Z,1.00
2023-01-26T09:49:06.556Z,1.10
2023-01-26T09:51:44.616Z,1.10
2023-01-26T09:54:27.875Z,1.10
2023-01-26T09:57:03.202Z,1.10
2023-01-26T09:59:43.419Z,1.20
2023-01-26T10:02:30.440Z,1.20
2023-01-26T10:05:19.672Z,1.20
2023-01-26T10:07:53.237Z,1.30
2023-01-26T10:10:32.246Z,1.30
2023-01-26T10:13:06.247Z,1.40
2023-01-26T10:15:43.620Z,1.40
2023-01-26T10:18:21.752Z,1.40
2023-01-26T10:20:57.655Z,1.40
2023-01-26T10:23:32.993Z,1.50
2023-01-26T10:26:14.388Z,1.50
2023-01-26T10:28:50.238Z,1.50
2023-01-26T10:31:26.320Z,1.50
2023-01-26T10:34:03.335Z,1.60
2023-01-26T10:36:36.993Z,1.60
2023-01-26T10:39:15.207Z,1.60
2023-01-26T10:42:00.600Z,1.70
2023-01-26T10:44:36.030Z,1.70
2023-01-26T10:47:16.374Z,1.70
2023-01-26T10:49:50.702Z,1.70
2023-01-26T10:52:26.285Z,1.70
2023-01-26T10:55:12.827Z,1.70
2023-01-26T10:57:48.204Z,1.70
2023-01-26T11:00:26.723Z,1.70
2023-01-26T11:03:20.624Z,1.70
2023-01-26T11:06:07.926Z,1.70
2023-01-26T11:08:42.025Z,1.70
2023-01-26T11:11:27.449Z,1.70
2023-01-26T11:14:17.734Z,1.70
2023-01-26T11:16:55.329Z,1.80
2023-01-26T11:19:55.963Z,1.80
2023-01-26T11:22:34.953Z,1.80
2023-01-26T11:25:17.284Z,1.80
2023-01-26T11:28:03.297Z,1.80
2023-01-26T11:30:49.838Z,1.90
2023-01-26T11:33:31.588Z,1.80
2023-01-26T11:36:13.656Z,1.80
2023-01-26T11:38:52.278Z,1.90
2023-01-26T11:41:35.839Z,1.80
2023-01-26T11:44:35.454Z,1.80
2023-01-26T11:47:28.512Z,1.80
2023-01-26T11:50:22.448Z,1.80
2023-01-26T11:53:25.467Z,1.80
2023-01-26T11:56:11.552Z,1.80
2023-01-26T11:58:51.017Z,1.80
2023-01-26T12:01:29.392Z,1.80
2023-01-26T12:04:04.535Z,1.80
2023-01-26T12:06:41.020Z,1.80
2023-01-26T12:09:23.009Z,1.80
2023-01-26T12:12:01.543Z,1.80
2023-01-26T12:14:39.640Z,1.90
2023-01-26T12:17:32.561Z,1.80
2023-01-26T12:20:21.523Z,1.80
2023-01-26T12:23:01.992Z,1.80
2023-01-26T12:25:37.808Z,1.80
2023-01-26T12:28:20.711Z,1.90
2023-01-26T12:31:01.217Z,1.80
2023-01-26T12:33:35.987Z,1.90
2023-01-26T12:36:29.675Z,1.80
2023-01-26T12:39:14.358Z,1.90
2023-01-26T12:42:05.663Z,1.80
2023-01-26T12:44:42.103Z,1.80
2023-01-26T12:47:24.199Z,1.70
2023-01-26T12:50:02.378Z,1.70
2023-01-26T12:52:40.550Z,1.70
2023-01-26T12:55:21.336Z,1.70
2023-01-26T12:57:59.706Z,1.70
2023-01-26T13:00:36.253Z,1.70
2023-01-26T13:03:18.316Z,1.70
2023-01-26T13:06:02.167Z,1.60
2023-01-26T13:08:55.197Z,1.70
2023-01-26T13:11:50.383Z,1.60
2023-01-26T13:14:38.975Z,1.60
2023-01-26T13:17:50.155Z,1.60
2023-01-26T13:20:46.508Z,1.60
2023-01-26T13:23:43.649Z,1.60
2023-01-26T13:26:33.624Z,1.50
2023-01-26T13:29:32.032Z,1.50
2023-01-26T13:32:57.881Z,1.50
2023-01-26T13:35:32.585Z,1.50
2023-01-26T13:38:16.159Z,1.40
2023-01-26T13:40:51.875Z,1.40
2023-01-26T13:43:32.372Z,1.40
2023-01-26T13:46:20.780Z,1.40
2023-01-26T13:48:56.083Z,1.40
2023-01-26T13:51:32.382Z,1.40
2023-01-26T13:54:08.046Z,1.40
2023-01-26T13:56:44.540Z,1.40
2023-01-26T13:59:20.930Z,1.40
2023-01-26T14:02:05.728Z,1.30
2023-01-26T14:04:53.075Z,1.30
2023-01-26T14:07:33.311Z,1.30
2023-01-26T14:10:08.810Z,1.30
2023-01-26T14:12:51.818Z,1.30
2023-01-26T14:15:29.341Z,1.40
2023-01-26T14:18:05.914Z,1.40
2023-01-26T14:20:41.797Z,1.40
2023-01-26T14:23:18.975Z,1.40
2023-01-26T14:26:04.165Z,1.40
2023-01-26T14:28:44.410Z,1.40
2023-01-26T14:31:21.324Z,1.50
2023-01-26T14:33:57.883Z,1.40
2023-01-26T14:36:48.347Z,1.40
2023-01-26T14:39:23.504Z,1.50
2023-01-26T14:41:58.042Z,1.50
2023-01-26T14:44:33.553Z,1.50
2023-01-26T14:47:11.388Z,1.40
2023-01-26T14:49:48.488Z,1.40
2023-01-26T14:52:27.209Z,1.40
2023-01-26T14:55:07.876Z,1.50
2023-01-26T14:57:42.453Z,1.40
2023-01-26T15:00:28.329Z,1.40
2023-01-26T15:03:07.124Z,1.40
2023-01-26T15:05:43.005Z,1.40
2023-01-26T15:08:23.768Z,1.30
2023-01-26T15:11:19.433Z,1.30
2023-01-26T15:13:55.471Z,1.30
2023-01-26T15:16:30.991Z,1.30
2023-01-26T15:19:08.083Z,1.20
2023-01-26T15:21:43.952Z,1.30
2023-01-26T15:24:17.851Z,1.30
2023-01-26T15:26:51.724Z,1.30
2023-01-26T15:29:35.132Z,1.20
2023-01-26T15:32:39.550Z,1.20
2023-01-26T15:35:22.138Z,1.20
2023-01-26T15:38:02.810Z,1.20
2023-01-26T15:40:36.414Z,1.10
2023-01-26T15:43:14.281Z,1.10
2023-01-26T15:45:52.817Z,1.10
2023-01-26T15:48:31.754Z,1.10
2023-01-26T15:51:06.909Z,1.10
2023-01-26T15:53:40.899Z,1.10
2023-01-26T15:56:16.054Z,1.00
2023-01-26T15:58:51.219Z,1.00
2023-01-26T16:01:33.255Z,1.00
2023-01-26T16:04:10.972Z,1.00
2023-01-26T16:06:44.982Z,1.00
2023-01-26T16:09:18.963Z,1.00
2023-01-26T16:11:53.912Z,1.00
2023-01-26T16:14:33.066Z,1.00
2023-01-26T16:17:14.883Z,1.00
2023-01-26T16:19:49.994Z,1.00
2023-01-26T16:22:28.662Z,1.00
2023-01-26T16:25:18.767Z,1.00
2023-01-26T16:27:52.629Z,1.00
2023-01-26T16:30:30.691Z,1.00
2023-01-26T16:33:04.719Z,1.00
2023-01-26T16:35:42.329Z,1.00
2023-01-26T16:38:17.053Z,1.00
2023-01-26T16:41:18.604Z,1.00
2023-01-26T16:43:52.744Z,1.00
2023-01-26T16:46:27.426Z,0.90
2023-01-26T16:52:06.621Z,0.90
2023-01-26T16:54:51.760Z,0.90
2023-01-26T16:57:31.133Z,0.90
2023-01-26T17:00:17.414Z,0.80
2023-01-26T17:02:53.158Z,0.80
2023-01-26T17:05:27.051Z,0.80
2023-01-26T17:08:04.638Z,0.80
2023-01-26T17:10:43.412Z,0.80
2023-01-26T17:13:22.532Z,0.90
2023-01-26T17:15:58.585Z,0.90
2023-01-26T17:18:34.842Z,0.90
2023-01-26T17:21:08.816Z,0.90
2023-01-26T17:23:44.807Z,0.90
2023-01-26T17:26:18.919Z,0.80
2023-01-26T17:28:56.344Z,0.80
2023-01-26T17:31:30.445Z,0.70
2023-01-26T17:34:06.694Z,0.70
2023-01-26T17:36:45.789Z,0.70
2023-01-26T17:39:21.417Z,0.70
2023-01-26T17:41:55.153Z,0.60
2023-01-26T17:44:28.851Z,0.60
2023-01-26T17:47:02.588Z,0.70
2023-01-26T17:49:36.374Z,0.70
2023-01-26T17:52:12.458Z,0.70
2023-01-26T17:54:47.583Z,0.70
2023-01-26T17:57:22.387Z,0.70
2023-01-26T17:59:56.329Z,0.70
2023-01-26T18:02:30.119Z,0.70
2023-01-26T18:05:05.753Z,0.70
2023-01-26T18:07:39.394Z,0.70
2023-01-26T18:10:14.879Z,0.70
2023-01-26T18:12:48.720Z,0.70
2023-01-26T18:15:23.036Z,0.70
2023-01-26T18:17:56.674Z,0.70
2023-01-26T18:20:30.351Z,0.70
2023-01-26T18:23:06.822Z,0.60
2023-01-26T18:25:41.856Z,0.70
2023-01-26T18:28:16.308Z,0.70
2023-01-26T18:30:50.066Z,0.70
2023-01-26T18:33:24.009Z,0.70
2023-01-26T18:36:04.837Z,0.70
2023-01-26T18:38:38.843Z,0.70
2023-01-26T18:41:15.173Z,0.70
2023-01-26T18:43:51.655Z,0.70
2023-01-26T18:46:27.591Z,0.70
2023-01-26T18:49:03.178Z,0.70
2023-01-26T18:51:37.658Z,0.70
2023-01-26T18:54:12.754Z,0.70
2023-01-26T18:56:53.913Z,0.70
2023-01-26T18:59:33.742Z,0.60
2023-01-26T19:02:09.707Z,0.60
2023-01-26T19:04:55.178Z,0.60
2023-01-26T19:07:29.115Z,0.60
2023-01-26T19:10:04.958Z,0.60
2023-01-26T19:12:40.446Z,0.60
2023-01-26T19:15:14.356Z,0.60
2023-01-26T19:17:48.319Z,0.60
2023-01-26T19:20:22.502Z,0.60
2023-01-26T19:22:57.621Z,0.60
2023-01-26T19:25:31.626Z,0.50
2023-01-26T19:28:06.893Z,0.50
2023-01-26T19:30:40.831Z,0.50
2023-01-26T19:33:29.028Z,0.50
2023-01-26T19:36:05.218Z,0.50
2023-01-26T19:38:39.912Z,0.50
2023-01-26T19:41:14.176Z,0.40
2023-01-26T19:43:50.442Z,0.40
2023-01-26T19:46:24.360Z,0.40
2023-01-26T19:48:58.134Z,0.40
2023-01-26T19:51:33.207Z,0.40
2023-01-26T19:54:07.307Z,0.40
2023-01-26T19:56:41.537Z,0.40
2023-01-26T19:59:20.452Z,0.40
2023-01-26T20:01:54.134Z,0.40
2023-01-26T20:04:27.718Z,0.40
2023-01-26T20:07:05.211Z,0.40
2023-01-26T20:09:40.163Z,0.40
2023-01-26T20:12:13.961Z,0.40
2023-01-26T20:14:51.600Z,0.40
2023-01-26T20:17:25.289Z,0.40
2023-01-26T20:19:59.019Z,0.30
2023-01-26T20:22:34.354Z,0.30
2023-01-26T20:25:11.426Z,0.30
2023-01-26T20:27:45.206Z,0.30
2023-01-26T20:30:21.366Z,0.30
2023-01-26T20:32:55.604Z,0.20
2023-01-26T20:35:29.768Z,0.20
2023-01-26T20:38:03.691Z,0.20
2023-01-26T20:40:38.741Z,0.20
2023-01-26T20:43:19.720Z,0.20
2023-01-26T20:45:54.788Z,0.20
2023-01-26T20:48:34.804Z,0.20
2023-01-26T20:51:13.688Z,0.20
2023-01-26T20:53:48.705Z,0.20
2023-01-26T20:56:23.594Z,0.20
2023-01-26T20:58:57.848Z,0.20
2023-01-26T21:01:34.705Z,0.20
2023-01-26T21:04:08.432Z,0.20
2023-01-26T21:06:42.082Z,0.20
2023-01-26T21:09:15.684Z,0.10
2023-01-26T21:11:49.276Z,0.10
2023-01-26T21:14:22.844Z,0.00
2023-01-26T21:16:58.163Z,0.00
2023-01-26T21:19:32.038Z,0.00
2023-01-26T21:22:05.794Z,0.00
2023-01-26T21:24:39.415Z,0.10
2023-01-26T21:27:12.954Z,0.10
2023-01-26T21:29:46.512Z,0.10
2023-01-26T21:32:21.420Z,0.10
2023-01-26T21:34:54.888Z,0.10
2023-01-26T21:37:28.690Z,0.10
2023-01-26T21:40:04.520Z,0.10
2023-01-26T21:42:38.445Z,0.20
2023-01-26T21:45:29.618Z,0.20
2023-01-26T21:48:24.504Z,0.10
2023-01-26T21:51:15.990Z,0.10
2023-01-26T21:53:49.461Z,0.10
2023-01-26T21:56:22.944Z,0.10
2023-01-26T21:58:57.692Z,0.10
2023-01-26T22:01:32.590Z,0.10
2023-01-26T22:04:09.594Z,0.10
2023-01-26T22:06:43.535Z,0.10
2023-01-26T22:09:26.579Z,0.10
2023-01-26T22:12:00.244Z,0.20
2023-01-26T22:14:33.938Z,0.20
2023-01-26T22:17:10.971Z,0.20
2023-01-26T22:19:46.055Z,0.20
2023-01-26T22:22:19.905Z,0.20
2023-01-26T22:24:53.525Z,0.20
2023-01-26T22:27:27.120Z,0.20
2023-01-26T22:30:00.672Z,0.20
2023-01-26T22:32:34.269Z,0.20
2023-01-26T22:35:09.988Z,0.10
2023-01-26T22:37:43.556Z,0.10
2023-01-26T22:40:17.168Z,0.10
2023-01-26T22:42:52.013Z,0.10
2023-01-26T22:45:25.656Z,0.10
2023-01-26T22:47:59.306Z,0.10
2023-01-26T22:50:34.380Z,0.10
2023-01-26T22:53:08.063Z,0.00
2023-01-26T22:55:42.969Z,0.00
2023-01-26T22:58:16.532Z,0.00
2023-01-26T23:00:50.086Z,-0.10
2023-01-26T23:03:23.754Z,-0.10
2023-01-26T23:06:01.474Z,-0.10
2023-01-26T23:08:35.629Z,-0.10
2023-01-26T23:11:12.363Z,-0.10
2023-01-26T23:13:47.000Z,-0.10
2023-01-26T23:16:21.374Z,-0.10
2023-01-26T23:18:56.545Z,-0.10
2023-01-26T23:21:31.639Z,-0.10
2023-01-26T23:24:05.429Z,-0.10
2023-01-26T23:26:39.114Z,-0.10
2023-01-26T23:29:12.777Z,-0.10
2023-01-26T23:31:46.472Z,-0.20
2023-01-26T23:34:20.772Z,-0.20
2023-01-26T23:36:55.810Z,-0.20
2023-01-26T23:39:29.366Z,-0.30
2023-01-26T23:42:02.896Z,-0.30
2023-01-26T23:44:36.464Z,-0.30
2023-01-26T23:47:10.289Z,-0.30
2023-01-26T23:49:43.908Z,-0.30
2023-01-26T23:52:18.871Z,-0.30
2023-01-26T23:54:52.422Z,-0.30
2023-01-26T23:57:26.012Z,-0.30
2023-01-26T23:59:59.520Z,-0.30
